createdAt,value
2019-01-10T00:00:43.952Z,6.47
2019-01-10T00:03:18.505Z,5.87
2019-01-10T00:05:53.001Z,6.33
2019-01-10T00:08:27.623Z,6.80
2019-01-10T00:11:02.461Z,6.13
2019-01-10T00:13:36.935Z,6.47
2019-01-10T00:16:11.616Z,6.10
2019-01-10T00:18:46.503Z,6.60
2019-01-10T00:21:21.231Z,6.27
2019-01-10T00:23:56.999Z,6.17
2019-01-10T00:26:31.757Z,6.37
2019-01-10T00:29:05.923Z,6.23
2019-01-10T00:31:40.559Z,6.37
2019-01-10T00:34:14.751Z,6.57
2019-01-10T00:36:49.921Z,6.30
2019-01-10T00:39:24.817Z,7.03
2019-01-10T00:41:59.157Z,6.53
2019-01-10T00:44:35.109Z,6.47
2019-01-10T00:47:10.476Z,6.80
2019-01-10T00:49:45.204Z,6.20
2019-01-10T00:52:19.837Z,6.60
2019-01-10T00:54:54.270Z,6.37
2019-01-10T00:57:28.844Z,6.83
2019-01-10T01:00:03.891Z,6.40
2019-01-10T01:02:38.370Z,6.50
2019-01-10T01:05:14.793Z,6.50
2019-01-10T01:07:49.081Z,7.07
2019-01-10T01:10:25.345Z,6.30
2019-01-10T01:13:00.160Z,6.53
2019-01-10T01:15:35.115Z,6.03
2019-01-10T01:18:09.642Z,6.73
2019-01-10T01:20:44.249Z,6.73
2019-01-10T01:23:18.480Z,6.97
2019-01-10T01:25:53.074Z,7.30
2019-01-10T01:28:27.733Z,6.97
2019-01-10T01:31:01.974Z,6.13
2019-01-10T01:33:36.413Z,6.03
2019-01-10T01:36:10.785Z,7.27
2019-01-10T01:38:47.175Z,7.73
2019-01-10T01:41:22.193Z,8.97
2019-01-10T01:43:56.867Z,9.33
2019-01-10T01:46:31.210Z,10.40
2019-01-10T01:49:05.990Z,10.40
2019-01-10T01:51:40.769Z,10.03
2019-01-10T01:54:15.084Z,9.93
2019-01-10T01:56:50.309Z,9.47
2019-01-10T01:59:24.247Z,9.40
2019-01-10T02:01:58.893Z,10.07
2019-01-10T02:04:33.313Z,10.00
2019-01-10T02:07:07.867Z,9.07
2019-01-10T02:09:42.504Z,9.23
2019-01-10T02:12:16.627Z,9.30
2019-01-10T02:14:51.575Z,8.83
2019-01-10T02:17:25.687Z,8.80
2019-01-10T02:20:01.144Z,9.43
2019-01-10T02:22:38.481Z,8.87
2019-01-10T02:25:12.313Z,8.33
2019-01-10T02:27:47.005Z,8.13
2019-01-10T02:30:23.713Z,9.10
2019-01-10T02:32:59.504Z,8.67
2019-01-10T02:35:33.607Z,8.43
2019-01-10T02:38:08.526Z,8.10
2019-01-10T02:40:43.368Z,8.20
2019-01-10T02:43:26.130Z,8.67
2019-01-10T02:45:53.797Z,8.30
2019-01-10T02:48:28.331Z,7.42
2019-01-10T02:51:03.262Z,8.15
2019-01-10T02:53:37.704Z,8.08
2019-01-10T02:56:11.833Z,8.40
2019-01-10T02:58:46.551Z,7.63
2019-01-10T03:01:20.801Z,7.37
2019-01-10T03:03:55.910Z,7.87
2019-01-10T03:06:33.434Z,8.43
2019-01-10T03:09:10.089Z,7.67
2019-01-10T03:11:44.666Z,7.97
2019-01-10T03:14:19.533Z,7.63
2019-01-10T03:16:53.760Z,7.85
2019-01-10T03:19:28.859Z,7.87
2019-01-10T03:22:02.923Z,8.83
2019-01-10T03:24:37.681Z,9.10
2019-01-10T03:27:12.310Z,7.65
2019-01-10T03:29:47.579Z,8.73
2019-01-10T03:32:21.810Z,9.65
2019-01-10T03:34:56.326Z,9.90
2019-01-10T03:37:30.632Z,9.10
2019-01-10T03:40:05.110Z,9.80
2019-01-10T03:42:39.585Z,9.40
2019-01-10T03:45:16.268Z,9.67
2019-01-10T03:47:50.936Z,10.60
2019-01-10T03:50:25.622Z,10.45
2019-01-10T03:53:00.781Z,11.40
2019-01-10T03:55:35.442Z,11.08
2019-01-10T03:58:10.231Z,11.22
2019-01-10T04:00:44.711Z,11.07
2019-01-10T04:03:19.714Z,11.35
2019-01-10T04:05:54.362Z,11.57
2019-01-10T04:08:29.587Z,12.60
2019-01-10T04:11:04.197Z,12.20
2019-01-10T04:13:39.212Z,12.88
2019-01-10T04:16:13.876Z,12.83
2019-01-10T04:18:48.678Z,12.83
2019-01-10T04:21:23.735Z,12.68
2019-01-10T04:23:58.223Z,14.03
2019-01-10T04:26:32.928Z,13.13
2019-01-10T04:29:07.677Z,13.70
2019-01-10T04:31:42.334Z,13.88
2019-01-10T04:34:16.992Z,14.47
2019-01-10T04:36:51.323Z,13.73
2019-01-10T04:39:26.109Z,14.60
2019-01-10T04:42:01.703Z,14.43
2019-01-10T04:44:36.321Z,14.25
2019-01-10T04:47:11.421Z,14.90
2019-01-10T04:49:46.030Z,15.50
2019-01-10T04:52:20.813Z,15.25
2019-01-10T04:54:55.971Z,15.17
2019-01-10T04:57:30.931Z,14.30
2019-01-10T05:00:05.596Z,15.07
2019-01-10T05:02:40.184Z,15.23
2019-01-10T05:05:14.863Z,15.47
2019-01-10T05:07:49.418Z,15.00
2019-01-10T05:10:24.311Z,15.20
2019-01-10T05:12:59.069Z,15.28
2019-01-10T05:15:33.510Z,16.17
2019-01-10T05:18:08.356Z,16.00
2019-01-10T05:20:43.556Z,16.40
2019-01-10T05:23:18.013Z,16.27
2019-01-10T05:25:52.887Z,16.82
2019-01-10T05:28:27.417Z,15.78
2019-01-10T05:31:05.002Z,15.68
2019-01-10T05:33:39.226Z,17.12
2019-01-10T05:36:14.375Z,16.55
2019-01-10T05:38:49.233Z,16.62
2019-01-10T05:41:24.424Z,15.98
2019-01-10T05:43:58.780Z,17.25
2019-01-10T05:46:33.424Z,15.45
2019-01-10T05:49:08.082Z,15.32
2019-01-10T05:51:42.908Z,15.10
2019-01-10T05:54:17.950Z,14.55
2019-01-10T05:56:52.933Z,14.73
2019-01-10T05:59:27.319Z,14.07
2019-01-10T06:02:02.141Z,13.95
2019-01-10T06:04:37.043Z,13.85
2019-01-10T06:07:11.719Z,13.43
2019-01-10T06:09:47.114Z,14.65
2019-01-10T06:12:21.779Z,13.68
2019-01-10T06:14:56.692Z,13.48
2019-01-10T06:17:31.336Z,14.83
2019-01-10T06:20:06.270Z,14.10
2019-01-10T06:22:40.546Z,13.80
2019-01-10T06:25:15.832Z,13.53
2019-01-10T06:27:50.227Z,13.48
2019-01-10T06:30:26.386Z,13.25
2019-01-10T06:33:01.525Z,14.00
2019-01-10T06:35:36.366Z,13.95
2019-01-10T06:38:11.471Z,13.78
2019-01-10T06:40:46.162Z,13.90
2019-01-10T06:43:20.844Z,14.38
2019-01-10T06:45:55.602Z,14.15
2019-01-10T06:48:29.932Z,13.90
2019-01-10T06:51:04.407Z,14.60
2019-01-10T06:53:38.598Z,13.72
2019-01-10T06:56:13.822Z,13.43
2019-01-10T06:58:50.384Z,13.68
2019-01-10T07:01:25.236Z,13.88
2019-01-10T07:03:59.818Z,13.30
2019-01-10T07:06:34.541Z,14.05
2019-01-10T07:09:10.851Z,13.60
2019-01-10T07:11:45.680Z,13.40
2019-01-10T07:14:20.308Z,14.70
2019-01-10T07:16:54.793Z,14.83
2019-01-10T07:19:52.011Z,13.03
2019-01-10T07:22:27.027Z,14.15
2019-01-10T07:25:01.928Z,14.50
2019-01-10T07:27:36.395Z,13.63
2019-01-10T07:30:12.174Z,14.18
2019-01-10T07:32:46.347Z,14.53
2019-01-10T07:35:21.592Z,15.03
2019-01-10T07:37:57.896Z,15.15
2019-01-10T07:40:33.941Z,13.58
2019-01-10T07:43:08.469Z,15.28
2019-01-10T07:45:43.292Z,14.43
2019-01-10T07:48:18.040Z,13.45
2019-01-10T07:50:53.117Z,13.62
2019-01-10T07:53:28.034Z,14.25
2019-01-10T07:56:02.420Z,13.62
2019-01-10T07:58:36.598Z,13.48
2019-01-10T08:01:11.480Z,13.78
2019-01-10T08:03:45.642Z,12.88
2019-01-10T08:06:20.586Z,13.30
2019-01-10T08:08:54.990Z,13.85
2019-01-10T08:11:29.279Z,13.65
2019-01-10T08:14:04.293Z,13.93
2019-01-10T08:16:38.779Z,13.58
2019-01-10T08:19:13.645Z,13.10
2019-01-10T08:21:47.615Z,13.55
2019-01-10T08:24:22.101Z,13.40
2019-01-10T08:26:56.571Z,13.68
2019-01-10T08:29:31.127Z,13.83
2019-01-10T08:32:05.530Z,13.88
2019-01-10T08:34:40.795Z,14.30
2019-01-10T08:37:15.081Z,13.28
2019-01-10T08:39:50.041Z,13.88
2019-01-10T08:42:24.406Z,14.15
2019-01-10T08:44:59.516Z,13.40
2019-01-10T08:47:33.704Z,14.13
2019-01-10T08:50:08.871Z,14.07
2019-01-10T08:52:43.386Z,14.13
2019-01-10T08:55:18.324Z,13.10
2019-01-10T08:57:52.967Z,13.03
2019-01-10T09:00:28.758Z,13.87
2019-01-10T09:03:03.764Z,13.08
2019-01-10T09:05:38.486Z,13.95
2019-01-10T09:08:13.354Z,13.40
2019-01-10T09:10:48.063Z,12.90
2019-01-10T09:13:22.948Z,13.32
2019-01-10T09:15:57.729Z,14.63
2019-01-10T09:18:32.254Z,12.98
2019-01-10T09:21:06.622Z,12.50
2019-01-10T09:23:41.309Z,12.95
2019-01-10T09:26:16.277Z,12.90
2019-01-10T09:28:50.865Z,13.53
2019-01-10T09:31:25.638Z,13.45
2019-01-10T09:33:59.898Z,13.70
2019-01-10T09:36:35.050Z,14.18
2019-01-10T09:39:11.198Z,13.35
2019-01-10T09:41:45.809Z,13.05
2019-01-10T09:44:20.361Z,13.43
2019-01-10T09:46:55.724Z,14.03
2019-01-10T09:49:29.808Z,13.13
2019-01-10T09:52:04.781Z,13.50
2019-01-10T09:54:39.276Z,13.08
2019-01-10T09:57:14.501Z,14.00
2019-01-10T09:59:50.283Z,11.95
2019-01-10T10:02:24.938Z,13.60
2019-01-10T10:05:00.831Z,13.22
2019-01-10T10:07:35.171Z,14.03
2019-01-10T10:10:11.633Z,12.78
2019-01-10T10:12:46.343Z,14.25
2019-01-10T10:15:21.743Z,13.30
2019-01-10T10:17:56.338Z,13.18
2019-01-10T10:20:31.214Z,13.38
2019-01-10T10:23:05.861Z,13.50
2019-01-10T10:25:40.563Z,13.55
2019-01-10T10:28:16.232Z,14.13
2019-01-10T10:30:50.403Z,13.38
2019-01-10T10:33:25.477Z,13.80
2019-01-10T10:36:00.036Z,14.20
2019-01-10T10:38:34.549Z,14.10
2019-01-10T10:41:08.821Z,14.00
2019-01-10T10:43:44.128Z,13.38
2019-01-10T10:46:18.812Z,14.43
2019-01-10T10:48:53.409Z,12.55
2019-01-10T10:51:27.856Z,13.22
2019-01-10T10:54:02.173Z,13.83
2019-01-10T10:56:36.560Z,13.50
2019-01-10T10:59:11.086Z,14.07
2019-01-10T11:01:45.935Z,14.00
2019-01-10T11:04:20.363Z,13.72
2019-01-10T11:06:55.433Z,13.95
2019-01-10T11:09:30.063Z,12.70
2019-01-10T11:12:07.898Z,13.60
2019-01-10T11:14:42.088Z,12.90
2019-01-10T11:17:17.189Z,13.15
2019-01-10T11:19:51.830Z,13.62
2019-01-10T11:22:26.283Z,12.82
2019-01-10T11:25:00.950Z,13.35
2019-01-10T11:27:35.431Z,12.80
2019-01-10T11:30:11.026Z,13.05
2019-01-10T11:32:45.020Z,13.62
2019-01-10T11:35:19.913Z,13.25
2019-01-10T11:37:53.879Z,14.45
2019-01-10T11:40:28.900Z,13.20
2019-01-10T11:43:03.515Z,13.05
2019-01-10T11:45:37.981Z,13.22
2019-01-10T11:48:12.939Z,13.30
2019-01-10T11:50:47.474Z,13.93
2019-01-10T11:53:22.260Z,14.03
2019-01-10T11:55:56.904Z,14.33
2019-01-10T11:58:31.273Z,14.05
2019-01-10T12:01:05.796Z,14.55
2019-01-10T12:03:40.726Z,13.75
2019-01-10T12:06:15.396Z,14.03
2019-01-10T12:08:50.556Z,14.45
2019-01-10T12:11:25.513Z,14.40
2019-01-10T12:14:00.294Z,14.70
2019-01-10T12:16:35.207Z,15.38
2019-01-10T12:19:10.155Z,15.00
2019-01-10T12:21:44.857Z,15.38
2019-01-10T12:24:19.801Z,14.83
2019-01-10T12:26:55.732Z,16.45
2019-01-10T12:29:36.067Z,15.60
2019-01-10T12:32:06.528Z,16.30
2019-01-10T12:34:41.105Z,17.15
2019-01-10T12:37:15.827Z,16.97
2019-01-10T12:39:50.363Z,17.27
2019-01-10T12:42:25.297Z,17.77
2019-01-10T12:45:00.270Z,17.35
2019-01-10T12:47:35.388Z,17.42
2019-01-10T12:50:11.875Z,18.10
2019-01-10T12:52:47.135Z,18.12
2019-01-10T12:55:21.521Z,17.62
2019-01-10T12:57:56.297Z,18.65
2019-01-10T13:00:30.902Z,18.62
2019-01-10T13:03:05.523Z,19.00
2019-01-10T13:05:40.180Z,19.17
2019-01-10T13:08:14.788Z,19.23
2019-01-10T13:10:49.707Z,19.05
2019-01-10T13:13:24.174Z,19.70
2019-01-10T13:15:58.855Z,20.80
2019-01-10T13:18:33.470Z,20.12
2019-01-10T13:21:09.733Z,19.05
2019-01-10T13:23:45.510Z,20.85
2019-01-10T13:26:22.540Z,20.23
2019-01-10T13:28:57.029Z,21.27
2019-01-10T13:31:31.980Z,22.10
2019-01-10T13:34:06.868Z,21.45
2019-01-10T13:36:41.382Z,21.70
2019-01-10T13:39:16.607Z,20.90
2019-01-10T13:41:51.177Z,20.08
2019-01-10T13:44:26.009Z,20.35
2019-01-10T13:47:18.500Z,21.02
2019-01-10T13:49:52.931Z,20.43
2019-01-10T13:52:28.060Z,21.35
2019-01-10T13:55:02.790Z,20.75
2019-01-10T13:57:37.900Z,20.77
2019-01-10T14:00:27.644Z,20.62
2019-01-10T14:03:02.139Z,20.75
2019-01-10T14:05:36.817Z,20.30
2019-01-10T14:08:11.772Z,20.02
2019-01-10T14:10:46.866Z,20.55
2019-01-10T14:13:21.688Z,20.93
2019-01-10T14:15:57.165Z,20.75
2019-01-10T14:18:32.455Z,20.50
2019-01-10T14:21:06.962Z,21.27
2019-01-10T14:23:42.377Z,20.87
2019-01-10T14:26:17.357Z,21.55
2019-01-10T14:28:52.196Z,20.05
2019-01-10T14:31:27.604Z,20.75
2019-01-10T14:34:02.669Z,19.70
2019-01-10T14:36:37.833Z,20.15
2019-01-10T14:39:13.411Z,19.67
2019-01-10T14:42:03.858Z,20.90
2019-01-10T14:44:38.291Z,19.40
2019-01-10T14:47:13.711Z,20.85
2019-01-10T14:49:52.594Z,20.40
2019-01-10T14:52:27.133Z,20.88
2019-01-10T14:55:02.139Z,20.95
2019-01-10T14:57:39.849Z,18.97
2019-01-10T15:00:18.420Z,20.35
2019-01-10T15:02:53.123Z,20.27
2019-01-10T15:05:33.993Z,20.75
2019-01-10T15:08:03.993Z,21.42
2019-01-10T15:10:38.522Z,20.60
2019-01-10T15:13:12.946Z,19.15
2019-01-10T15:15:47.465Z,20.32
2019-01-10T15:18:21.923Z,19.32
2019-01-10T15:20:57.130Z,20.13
2019-01-10T15:23:31.738Z,19.35
2019-01-10T15:26:07.246Z,21.60
2019-01-10T15:28:42.794Z,19.67
2019-01-10T15:31:17.726Z,20.00
2019-01-10T15:33:52.377Z,20.20
2019-01-10T15:36:26.973Z,20.82
2019-01-10T15:39:01.498Z,19.65
2019-01-10T15:41:37.877Z,19.65
2019-01-10T15:44:13.022Z,19.20
2019-01-10T15:46:47.454Z,19.65
2019-01-10T15:49:22.118Z,20.20
2019-01-10T15:51:56.335Z,20.20
2019-01-10T15:54:31.437Z,18.82
2019-01-10T15:57:05.988Z,19.52
2019-01-10T15:59:40.927Z,19.42
2019-01-10T16:02:15.602Z,18.77
2019-01-10T16:04:50.875Z,19.20
2019-01-10T16:07:25.378Z,19.30
2019-01-10T16:10:00.231Z,20.10
2019-01-10T16:12:34.888Z,18.50
2019-01-10T16:15:10.645Z,18.37
2019-01-10T16:17:45.441Z,18.65
2019-01-10T16:20:20.131Z,19.05
2019-01-10T16:22:54.617Z,18.62
2019-01-10T16:25:29.540Z,17.87
2019-01-10T16:28:04.315Z,17.67
2019-01-10T16:30:39.293Z,18.60
2019-01-10T16:33:14.061Z,17.80
2019-01-10T16:35:49.830Z,17.62
2019-01-10T16:38:24.421Z,18.27
2019-01-10T16:40:59.385Z,17.25
2019-01-10T16:43:33.961Z,17.30
2019-01-10T16:46:08.612Z,17.50
2019-01-10T16:48:43.483Z,18.50
2019-01-10T16:51:18.215Z,17.37
2019-01-10T16:53:53.024Z,17.12
2019-01-10T16:56:27.731Z,17.95
2019-01-10T16:59:02.477Z,17.33
2019-01-10T17:01:37.253Z,17.92
2019-01-10T17:04:12.197Z,17.45
2019-01-10T17:06:46.633Z,18.00
2019-01-10T17:09:21.743Z,17.13
2019-01-10T17:11:56.147Z,18.45
2019-01-10T17:14:31.325Z,18.70
2019-01-10T17:17:06.115Z,17.20
2019-01-10T17:19:41.127Z,18.57
2019-01-10T17:22:16.893Z,18.33
2019-01-10T17:24:51.727Z,17.43
2019-01-10T17:27:26.390Z,18.63
2019-01-10T17:30:00.802Z,18.07
2019-01-10T17:32:35.782Z,19.05
2019-01-10T17:35:12.848Z,18.10
2019-01-10T17:37:47.702Z,18.25
2019-01-10T17:40:23.342Z,17.73
2019-01-10T17:42:58.085Z,18.85
2019-01-10T17:45:35.031Z,18.25
2019-01-10T17:48:11.659Z,18.35
2019-01-10T17:50:46.727Z,18.10
2019-01-10T17:53:21.641Z,18.07
2019-01-10T17:55:57.165Z,18.10
2019-01-10T17:58:31.924Z,18.10
2019-01-10T18:01:06.647Z,18.83
2019-01-10T18:03:41.598Z,17.23
2019-01-10T18:06:16.025Z,17.35
2019-01-10T18:08:51.147Z,17.37
2019-01-10T18:11:25.570Z,18.02
2019-01-10T18:14:00.149Z,18.75
2019-01-10T18:16:35.251Z,17.10
2019-01-10T18:19:09.517Z,17.65
2019-01-10T18:21:44.658Z,17.77
2019-01-10T18:24:19.075Z,16.67
2019-01-10T18:26:55.364Z,17.95
2019-01-10T18:29:33.007Z,18.00
2019-01-10T18:32:06.698Z,16.00
2019-01-10T18:34:43.336Z,17.10
2019-01-10T18:37:18.426Z,17.48
2019-01-10T18:39:53.269Z,17.30
2019-01-10T18:42:28.017Z,17.13
2019-01-10T18:45:02.964Z,16.77
2019-01-10T18:47:37.698Z,16.40
2019-01-10T18:50:15.605Z,16.83
2019-01-10T18:52:50.607Z,16.97
2019-01-10T18:55:25.362Z,16.30
2019-01-10T18:58:00.187Z,16.55
2019-01-10T19:00:35.550Z,17.17
2019-01-10T19:03:10.421Z,17.43
2019-01-10T19:05:45.014Z,16.73
2019-01-10T19:08:19.943Z,16.50
2019-01-10T19:10:54.673Z,15.95
2019-01-10T19:13:29.318Z,16.77
2019-01-10T19:16:04.945Z,17.00
2019-01-10T19:18:39.825Z,16.23
2019-01-10T19:21:13.932Z,16.27
2019-01-10T19:23:48.985Z,16.40
2019-01-10T19:26:23.567Z,16.80
2019-01-10T19:28:58.339Z,17.33
2019-01-10T19:31:32.526Z,15.90
2019-01-10T19:34:07.600Z,16.60
2019-01-10T19:36:42.020Z,15.95
2019-01-10T19:39:17.074Z,16.23
2019-01-10T19:41:52.312Z,15.97
2019-01-10T19:44:27.203Z,15.58
2019-01-10T19:47:01.986Z,15.45
2019-01-10T19:49:36.662Z,15.47
2019-01-10T19:52:11.613Z,16.02
2019-01-10T19:54:45.990Z,15.20
2019-01-10T19:57:20.829Z,15.35
2019-01-10T19:59:55.544Z,15.90
2019-01-10T20:02:30.481Z,16.12
2019-01-10T20:05:05.164Z,15.90
2019-01-10T20:07:39.881Z,15.43
2019-01-10T20:10:15.902Z,15.15
2019-01-10T20:12:50.829Z,14.50
2019-01-10T20:15:25.323Z,15.23
2019-01-10T20:18:00.499Z,15.68
2019-01-10T20:20:43.259Z,14.83
2019-01-10T20:23:26.817Z,14.80
2019-01-10T20:26:01.390Z,14.03
2019-01-10T20:28:36.056Z,15.03
2019-01-10T20:31:10.905Z,14.93
2019-01-10T20:33:45.651Z,14.97
2019-01-10T20:36:19.765Z,15.00
2019-01-10T20:38:54.312Z,15.27
2019-01-10T20:41:28.882Z,15.50
2019-01-10T20:44:03.751Z,14.68
2019-01-10T20:46:38.419Z,14.90
2019-01-10T20:49:13.070Z,15.13
2019-01-10T20:51:47.559Z,14.55
2019-01-10T20:54:23.374Z,14.90
2019-01-10T20:56:58.062Z,14.68
2019-01-10T20:59:32.484Z,15.23
2019-01-10T21:02:06.649Z,15.20
2019-01-10T21:04:41.216Z,15.13
2019-01-10T21:07:15.548Z,15.33
2019-01-10T21:09:50.862Z,14.80
2019-01-10T21:12:25.457Z,14.93
2019-01-10T21:14:59.831Z,15.45
2019-01-10T21:17:35.015Z,15.53
2019-01-10T21:20:09.737Z,14.87
2019-01-10T21:22:44.515Z,14.37
2019-01-10T21:25:18.937Z,14.78
2019-01-10T21:27:53.377Z,15.40
2019-01-10T21:30:28.157Z,15.40
2019-01-10T21:33:02.274Z,15.27
2019-01-10T21:35:36.912Z,15.72
2019-01-10T21:38:11.509Z,15.30
2019-01-10T21:40:46.319Z,15.10
2019-01-10T21:43:20.434Z,14.40
2019-01-10T21:45:55.352Z,14.93
2019-01-10T21:48:35.060Z,15.60
2019-01-10T21:51:06.118Z,14.70
2019-01-10T21:53:40.870Z,14.33
2019-01-10T21:56:15.765Z,14.27
2019-01-10T21:58:51.002Z,13.93
2019-01-10T22:01:24.933Z,13.67
2019-01-10T22:03:59.429Z,14.53
2019-01-10T22:06:34.629Z,14.57
2019-01-10T22:09:10.465Z,14.27
2019-01-10T22:11:44.845Z,13.93
2019-01-10T22:14:19.233Z,14.43
2019-01-10T22:16:53.901Z,14.17
2019-01-10T22:19:28.232Z,13.90
2019-01-10T22:22:03.288Z,13.30
2019-01-10T22:24:38.087Z,13.80
2019-01-10T22:27:15.029Z,13.87
2019-01-10T22:29:49.532Z,13.13
2019-01-10T22:32:24.454Z,13.93
2019-01-10T22:34:58.864Z,13.60
2019-01-10T22:37:33.728Z,13.03
2019-01-10T22:40:08.418Z,13.57
2019-01-10T22:42:42.298Z,13.40
2019-01-10T22:45:17.239Z,14.37
2019-01-10T22:47:51.777Z,13.10
2019-01-10T22:50:26.689Z,13.83
2019-01-10T22:53:01.353Z,12.87
2019-01-10T22:55:35.750Z,13.40
2019-01-10T22:58:10.721Z,13.57
2019-01-10T23:01:43.361Z,13.27
2019-01-10T23:04:21.787Z,12.80
2019-01-10T23:06:56.021Z,13.27
2019-01-10T23:09:30.381Z,13.37
2019-01-10T23:12:06.600Z,13.40
2019-01-10T23:14:41.067Z,13.03
2019-01-10T23:17:16.085Z,13.60
2019-01-10T23:19:53.922Z,13.53
2019-01-10T23:22:28.511Z,13.00
2019-01-10T23:25:03.330Z,13.67
2019-01-10T23:27:38.854Z,13.57
2019-01-10T23:30:13.592Z,12.93
2019-01-10T23:32:48.300Z,12.73
2019-01-10T23:35:22.965Z,13.83
2019-01-10T23:37:58.718Z,13.03
2019-01-10T23:40:33.194Z,13.80
2019-01-10T23:43:07.483Z,13.83
2019-01-10T23:45:41.983Z,13.33
2019-01-10T23:48:16.624Z,12.83
2019-01-10T23:50:51.205Z,13.87
2019-01-10T23:53:25.679Z,13.17
2019-01-10T23:55:59.994Z,12.83
2019-01-10T23:58:34.180Z,12.93
